createdAt,value
2019-04-23T00:02:16.618Z,99.90
2019-04-23T00:04:45.550Z,99.90
2019-04-23T00:07:33.557Z,99.90
2019-04-23T00:09:53.183Z,99.90
2019-04-23T00:12:24.342Z,99.90
2019-04-23T00:14:57.769Z,99.90
2019-04-23T00:17:17.925Z,99.90
2019-04-23T00:19:47.254Z,99.90
2019-04-23T00:22:17.818Z,99.90
2019-04-23T00:25:11.520Z,99.90
2019-04-23T00:29:53.128Z,99.90
2019-04-23T00:32:21.821Z,99.90
2019-04-23T00:37:25.733Z,99.90
2019-04-23T00:39:52.790Z,99.90
2019-04-23T00:42:23.890Z,99.90
2019-04-23T00:44:51.583Z,99.90
2019-04-23T00:47:23.190Z,99.90
2019-04-23T00:49:51.283Z,99.90
2019-04-23T00:52:23.706Z,99.90
2019-04-23T00:54:49.397Z,99.90
2019-04-23T00:57:24.181Z,99.90
2019-04-23T00:59:53.714Z,99.90
2019-04-23T01:02:16.723Z,99.90
2019-04-23T01:04:48.145Z,99.90
2019-04-23T01:07:18.558Z,99.90
2019-04-23T01:09:56.126Z,99.90
2019-04-23T01:12:29.260Z,99.90
2019-04-23T01:14:52.027Z,99.90
2019-04-23T01:17:30.337Z,99.90
2019-04-23T01:19:49.905Z,99.90
2019-04-23T01:22:02.168Z,99.90
2019-04-23T01:28:07.616Z,99.90
2019-04-23T01:30:41.862Z,99.90
2019-04-23T01:33:12.220Z,99.90
2019-04-23T01:35:39.630Z,99.90
2019-04-23T01:38:11.625Z,99.90
2019-04-23T01:43:07.931Z,99.90
2019-04-23T01:45:31.253Z,99.90
2019-04-23T01:48:09.555Z,99.90
2019-04-23T01:50:43.672Z,99.90
2019-04-23T01:53:16.764Z,99.90
2019-04-23T01:55:42.180Z,99.90
2019-04-23T02:00:43.706Z,99.90
2019-04-23T02:05:46.866Z,99.90
2019-04-23T02:08:11.074Z,99.90
2019-04-23T02:10:44.299Z,99.90
2019-04-23T02:13:16.621Z,99.90
2019-04-23T02:15:43.917Z,99.90
2019-04-23T02:18:14.443Z,99.90
2019-04-23T02:20:46.124Z,99.90
2019-04-23T02:28:28.653Z,99.90
2019-04-23T02:36:02.381Z,99.90
2019-04-23T02:38:40.250Z,99.90
2019-04-23T02:41:13.085Z,99.90
2019-04-23T02:43:22.145Z,99.90
2019-04-23T02:48:36.161Z,99.90
2019-04-23T02:50:55.552Z,99.90
2019-04-23T02:53:44.654Z,99.90
2019-04-23T02:56:11.586Z,99.90
2019-04-23T03:13:48.254Z,99.90
2019-04-23T03:16:31.814Z,99.90
2019-04-23T03:18:47.756Z,99.90
2019-04-23T03:24:11.564Z,99.90
2019-04-23T03:29:20.254Z,99.90
2019-04-23T03:37:11.321Z,99.90
2019-04-23T03:39:12.247Z,99.90
2019-04-23T03:41:50.317Z,99.90
2019-04-23T03:44:13.583Z,99.90
2019-04-23T03:46:39.956Z,99.90
2019-04-23T03:49:07.108Z,99.90
2019-04-23T03:52:02.948Z,99.90
2019-04-23T03:54:26.077Z,99.90
2019-04-23T03:57:00.621Z,99.90
2019-04-23T03:59:20.303Z,99.90
2019-04-23T04:01:48.642Z,99.90
2019-04-23T04:06:48.124Z,99.90
2019-04-23T04:11:34.689Z,99.90
2019-04-23T04:19:25.128Z,99.90
2019-04-23T04:21:51.997Z,99.90
2019-04-23T04:24:25.023Z,99.90
2019-04-23T04:26:51.454Z,99.90
2019-04-23T04:37:02.279Z,99.90
2019-04-23T04:39:10.041Z,99.90
2019-04-23T04:41:52.567Z,99.90
2019-04-23T04:44:26.383Z,99.90
2019-04-23T04:49:15.285Z,99.90
2019-04-23T04:59:13.978Z,99.90
2019-04-23T05:01:54.160Z,99.90
2019-04-23T05:04:24.343Z,99.90
2019-04-23T05:06:54.006Z,99.90
2019-04-23T05:09:31.776Z,99.90
2019-04-23T05:11:51.886Z,99.90
2019-04-23T05:14:08.460Z,99.90
2019-04-23T05:16:43.199Z,99.90
2019-04-23T05:19:26.959Z,99.90
2019-04-23T05:21:46.838Z,99.90
2019-04-23T05:24:08.772Z,99.90
2019-04-23T05:26:33.129Z,99.90
2019-04-23T05:29:14.716Z,99.90
2019-04-23T05:31:40.327Z,99.90
2019-04-23T05:34:23.870Z,99.90
2019-04-23T05:36:43.898Z,99.90
2019-04-23T05:39:15.542Z,99.90
2019-04-23T05:41:38.535Z,99.90
2019-04-23T05:44:17.117Z,99.90
2019-04-23T05:49:11.049Z,99.90
2019-04-23T05:51:46.421Z,99.90
2019-04-23T05:54:12.769Z,99.90
2019-04-23T05:56:38.789Z,99.90
2019-04-23T05:59:14.664Z,99.90
2019-04-23T06:07:11.395Z,99.90
2019-04-23T06:09:14.126Z,99.90
2019-04-23T06:16:41.877Z,99.90
2019-04-23T06:19:13.058Z,99.90
2019-04-23T06:21:56.154Z,99.90
2019-04-23T06:24:19.641Z,99.90
2019-04-23T06:29:19.392Z,99.90
2019-04-23T06:31:42.971Z,99.90
2019-04-23T06:36:39.959Z,99.90
2019-04-23T06:39:10.272Z,99.90
2019-04-23T06:44:15.951Z,99.90
2019-04-23T06:46:46.060Z,99.90
2019-04-23T06:49:09.396Z,99.90
2019-04-23T06:51:45.938Z,99.90
2019-04-23T06:54:13.451Z,99.90
2019-04-23T06:56:43.320Z,99.90
2019-04-23T06:59:11.966Z,99.90
2019-04-23T07:01:46.335Z,99.90
2019-04-23T07:04:14.319Z,99.90
2019-04-23T07:06:39.495Z,99.90
2019-04-23T07:09:12.090Z,99.90
2019-04-23T07:11:47.594Z,99.90
2019-04-23T07:14:28.682Z,99.90
2019-04-23T07:16:38.577Z,99.90
2019-04-23T07:21:39.263Z,99.90
2019-04-23T07:24:13.559Z,99.90
2019-04-23T07:29:09.051Z,99.90
2019-04-23T07:31:55.806Z,99.90
2019-04-23T07:41:56.344Z,99.90
2019-04-23T07:44:28.327Z,99.90
2019-04-23T07:49:49.147Z,99.90
2019-04-23T07:52:15.037Z,99.90
2019-04-23T07:54:44.166Z,99.90
2019-04-23T07:57:15.260Z,99.90
2019-04-23T07:59:44.048Z,99.90
2019-04-23T08:02:15.908Z,99.90
2019-04-23T08:04:56.425Z,99.90
2019-04-23T08:07:14.726Z,99.90
2019-04-23T08:09:48.474Z,99.90
2019-04-23T08:12:19.265Z,99.90
2019-04-23T08:14:48.226Z,99.90
2019-04-23T08:17:12.601Z,99.90
2019-04-23T08:19:49.847Z,99.90
2019-04-23T08:22:24.027Z,99.90
2019-04-23T08:27:14.156Z,99.90
2019-04-23T08:29:30.389Z,99.90
2019-04-23T08:32:16.804Z,99.90
2019-04-23T08:34:48.033Z,99.90
2019-04-23T08:37:15.455Z,99.90
2019-04-23T08:39:43.186Z,99.90
2019-04-23T08:45:03.142Z,99.90
2019-04-23T08:47:22.936Z,99.90
2019-04-23T08:49:50.745Z,99.90
2019-04-23T08:52:37.024Z,99.90
2019-04-23T08:57:24.032Z,99.90
2019-04-23T09:02:30.579Z,99.90
2019-04-23T09:04:53.804Z,99.90
2019-04-23T09:09:57.659Z,99.90
2019-04-23T09:12:28.552Z,99.90
2019-04-23T09:14:51.031Z,99.90
2019-04-23T09:17:27.566Z,99.90
2019-04-23T09:20:15.154Z,99.90
2019-04-23T09:24:57.438Z,99.90
2019-04-23T09:30:08.002Z,99.90
2019-04-23T09:37:34.684Z,99.90
2019-04-23T09:40:20.409Z,99.90
2019-04-23T09:42:46.426Z,99.90
2019-04-23T09:55:38.869Z,99.90
2019-04-23T09:58:15.519Z,99.90
2019-04-23T10:02:59.947Z,99.90
2019-04-23T10:05:25.096Z,99.90
2019-04-23T10:07:51.816Z,99.90
2019-04-23T10:10:12.181Z,99.90
2019-04-23T10:12:42.048Z,99.90
2019-04-23T10:15:18.764Z,99.90
2019-04-23T10:17:42.305Z,99.90
2019-04-23T10:20:11.047Z,99.90
2019-04-23T10:22:42.089Z,99.90
2019-04-23T10:25:10.991Z,99.90
2019-04-23T10:27:41.301Z,99.90
2019-04-23T10:30:10.247Z,99.90
2019-04-23T10:32:40.115Z,99.90
2019-04-23T10:35:20.941Z,99.90
2019-04-23T10:37:46.724Z,99.90
2019-04-23T10:40:15.378Z,99.90
2019-04-23T10:42:43.209Z,99.90
2019-04-23T10:45:39.653Z,99.90
2019-04-23T10:48:32.839Z,99.90
2019-04-23T10:50:59.590Z,99.90
2019-04-23T10:53:42.764Z,99.90
2019-04-23T10:56:07.560Z,99.90
2019-04-23T11:01:04.500Z,99.90
2019-04-23T11:03:57.199Z,99.90
2019-04-23T11:06:21.518Z,99.90
2019-04-23T11:08:31.236Z,99.90
2019-04-23T11:11:12.134Z,99.90
2019-04-23T11:13:38.271Z,99.90
2019-04-23T11:16:41.887Z,99.90
2019-04-23T11:18:45.440Z,99.90
2019-04-23T11:23:34.397Z,99.90
2019-04-23T11:26:12.238Z,99.90
2019-04-23T11:28:41.702Z,99.90
2019-04-23T11:31:15.749Z,99.90
2019-04-23T11:33:39.225Z,99.90
2019-04-23T11:36:33.691Z,99.90
2019-04-23T11:41:12.824Z,99.90
2019-04-23T11:43:32.551Z,99.90
2019-04-23T11:46:25.748Z,99.90
2019-04-23T11:51:39.402Z,99.90
2019-04-23T11:53:54.381Z,99.90
2019-04-23T11:56:12.128Z,99.90
2019-04-23T12:01:23.624Z,99.90
2019-04-23T12:03:56.460Z,99.90
2019-04-23T12:06:25.031Z,99.90
2019-04-23T12:09:16.100Z,99.90
2019-04-23T12:11:46.486Z,99.90
2019-04-23T12:14:02.835Z,99.90
2019-04-23T12:16:34.385Z,99.90
2019-04-23T12:19:25.466Z,99.90
2019-04-23T12:21:43.406Z,99.90
2019-04-23T12:24:04.871Z,99.90
2019-04-23T12:26:38.944Z,99.90
2019-04-23T12:28:57.694Z,99.90
2019-04-23T12:31:34.453Z,99.90
2019-04-23T12:34:07.234Z,99.90
2019-04-23T12:36:37.940Z,99.90
2019-04-23T12:39:08.752Z,99.90
2019-04-23T12:41:36.211Z,99.90
2019-04-23T12:46:39.201Z,99.90
2019-04-23T12:51:45.209Z,99.90
2019-04-23T12:54:06.375Z,99.90
2019-04-23T12:56:43.764Z,99.90
2019-04-23T12:58:56.238Z,99.90
2019-04-23T13:01:44.297Z,99.90
2019-04-23T13:03:59.773Z,99.90
2019-04-23T13:06:27.726Z,99.90
2019-04-23T13:09:00.959Z,99.90
2019-04-23T13:11:34.439Z,99.90
2019-04-23T13:14:30.074Z,99.90
2019-04-23T13:16:40.624Z,99.90
2019-04-23T13:19:08.017Z,99.90
2019-04-23T13:21:51.329Z,99.90
2019-04-23T13:23:55.799Z,99.90
2019-04-23T13:26:24.198Z,99.90
2019-04-23T13:29:00.900Z,99.90
2019-04-23T13:31:39.773Z,99.90
2019-04-23T13:33:58.716Z,99.90
2019-04-23T13:36:36.345Z,99.90
2019-04-23T13:38:58.425Z,99.90
2019-04-23T13:43:53.149Z,99.90
2019-04-23T13:46:32.710Z,99.90
2019-04-23T13:48:53.637Z,99.90
2019-04-23T13:53:59.333Z,99.90
2019-04-23T13:59:09.366Z,99.90
2019-04-23T14:01:35.445Z,99.90
2019-04-23T14:04:04.669Z,99.90
2019-04-23T14:08:59.853Z,99.90
2019-04-23T14:11:34.249Z,99.90
2019-04-23T14:21:44.457Z,99.90
2019-04-23T14:28:58.895Z,99.90
2019-04-23T14:31:28.555Z,99.90
2019-04-23T14:34:04.795Z,99.90
2019-04-23T14:36:36.324Z,99.90
2019-04-23T14:41:26.303Z,99.90
2019-04-23T14:46:47.194Z,99.90
2019-04-23T14:51:39.828Z,99.90
2019-04-23T14:54:23.585Z,99.90
2019-04-23T15:01:35.383Z,99.90
2019-04-23T15:04:05.656Z,99.90
2019-04-23T15:06:36.313Z,99.90
2019-04-23T15:09:20.986Z,99.90
2019-04-23T15:11:35.324Z,99.90
2019-04-23T15:14:06.158Z,99.90
2019-04-23T15:24:14.026Z,99.90
2019-04-23T15:28:46.740Z,99.90
2019-04-23T15:31:42.838Z,99.90
2019-04-23T15:34:13.927Z,99.90
2019-04-23T15:39:24.378Z,99.90
2019-04-23T15:41:38.239Z,99.90
2019-04-23T15:44:10.437Z,99.90
2019-04-23T15:46:41.070Z,99.90
2019-04-23T15:49:22.938Z,99.90
2019-04-23T16:01:34.122Z,99.90
2019-04-23T16:03:39.618Z,99.90
2019-04-23T16:06:08.722Z,99.90
2019-04-23T16:16:41.484Z,99.90
2019-04-23T16:22:04.591Z,99.90
2019-04-23T16:24:26.307Z,99.90
2019-04-23T16:27:07.742Z,99.90
2019-04-23T16:29:46.909Z,99.90
2019-04-23T16:32:09.595Z,99.90
2019-04-23T16:34:28.635Z,99.90
2019-04-23T16:37:04.629Z,99.90
2019-04-23T16:39:31.135Z,99.90
2019-04-23T16:42:13.627Z,99.90
2019-04-23T16:44:38.280Z,99.90
2019-04-23T16:47:11.778Z,99.90
2019-04-23T16:49:36.905Z,99.90
2019-04-23T16:52:01.316Z,99.90
2019-04-23T16:54:42.375Z,99.90
2019-04-23T17:00:02.512Z,99.90
2019-04-23T17:02:12.352Z,99.90
2019-04-23T17:04:32.975Z,99.90
2019-04-23T17:09:42.703Z,99.90
2019-04-23T17:14:49.738Z,99.90
2019-04-23T17:16:53.320Z,99.90
2019-04-23T17:19:28.245Z,99.90
2019-04-23T17:27:08.239Z,99.90
2019-04-23T17:32:06.673Z,99.90
2019-04-23T17:37:21.710Z,99.90
2019-04-23T17:40:03.601Z,99.90
2019-04-23T17:42:24.332Z,99.90
2019-04-23T17:45:24.452Z,99.90
2019-04-23T17:47:30.070Z,99.90
2019-04-23T17:50:10.775Z,99.90
2019-04-23T17:52:26.342Z,99.90
2019-04-23T17:55:15.453Z,99.90
2019-04-23T17:57:29.643Z,99.90
2019-04-23T18:00:23.143Z,99.90
2019-04-23T18:02:49.680Z,99.90
2019-04-23T18:05:13.142Z,99.90
2019-04-23T18:07:43.932Z,99.90
2019-04-23T18:10:12.368Z,99.90
2019-04-23T18:12:38.992Z,99.90
2019-04-23T18:15:03.460Z,99.90
2019-04-23T18:17:37.495Z,99.90
2019-04-23T18:23:04.806Z,99.90
2019-04-23T18:30:15.650Z,99.90
2019-04-23T18:35:19.468Z,99.90
2019-04-23T18:37:41.473Z,99.90
2019-04-23T18:40:13.669Z,99.90
2019-04-23T18:42:43.799Z,99.90
2019-04-23T18:45:24.862Z,99.90
2019-04-23T18:47:54.846Z,99.90
2019-04-23T18:50:26.090Z,99.90
2019-04-23T18:55:24.341Z,99.90
2019-04-23T18:57:46.878Z,99.90
2019-04-23T19:00:17.238Z,99.90
2019-04-23T19:05:41.548Z,99.90
2019-04-23T19:08:32.146Z,99.90
2019-04-23T19:10:36.159Z,99.90
2019-04-23T19:18:16.936Z,66.20
2019-04-23T19:23:16.027Z,59.30
2019-04-23T19:25:44.167Z,61.60
2019-04-23T19:28:44.611Z,67.00
2019-04-23T19:33:49.235Z,73.60
2019-04-23T19:36:20.253Z,81.20
2019-04-23T19:38:43.420Z,88.60
2019-04-23T19:41:29.728Z,98.50
2019-04-23T19:43:44.918Z,97.70
2019-04-23T19:46:34.865Z,99.90
2019-04-23T19:51:08.758Z,99.90
2019-04-23T19:53:54.894Z,99.90
2019-04-23T19:56:16.443Z,99.90
2019-04-23T19:58:44.941Z,99.90
2019-04-23T20:01:16.554Z,99.90
2019-04-23T20:03:46.353Z,99.90
2019-04-23T20:06:15.027Z,99.90
2019-04-23T20:08:55.970Z,99.90
2019-04-23T20:11:07.781Z,99.90
2019-04-23T20:13:45.333Z,99.90
2019-04-23T20:16:13.913Z,99.90
2019-04-23T20:21:03.430Z,99.90
2019-04-23T20:23:56.004Z,99.90
2019-04-23T20:29:14.936Z,99.90
2019-04-23T20:32:53.939Z,99.90
2019-04-23T20:34:06.042Z,99.90
2019-04-23T20:36:23.112Z,99.90
2019-04-23T20:39:02.546Z,99.90
2019-04-23T20:41:21.782Z,99.90
2019-04-23T20:44:01.335Z,99.90
2019-04-23T20:46:27.574Z,99.90
2019-04-23T20:48:53.106Z,99.90
2019-04-23T20:51:18.745Z,99.90
2019-04-23T20:53:59.275Z,99.90
2019-04-23T20:56:25.401Z,99.90
2019-04-23T20:58:54.732Z,99.90
2019-04-23T21:06:47.055Z,99.90
2019-04-23T21:11:25.025Z,99.90
2019-04-23T21:14:10.841Z,99.90
2019-04-23T21:16:31.049Z,99.90
2019-04-23T21:18:55.042Z,99.90
2019-04-23T21:21:39.994Z,99.90
2019-04-23T21:26:37.151Z,99.90
2019-04-23T21:29:13.514Z,99.90
2019-04-23T21:31:31.986Z,99.90
2019-04-23T21:34:17.757Z,99.90
2019-04-23T21:39:06.209Z,99.90
2019-04-23T21:41:45.320Z,99.90
2019-04-23T21:46:41.212Z,99.90
2019-04-23T21:51:56.474Z,99.90
2019-04-23T21:54:14.937Z,99.90
2019-04-23T21:56:39.596Z,99.90
2019-04-23T22:06:47.786Z,99.90
2019-04-23T22:09:12.402Z,99.90
2019-04-23T22:14:19.323Z,99.90
2019-04-23T22:16:41.063Z,99.90
2019-04-23T22:21:43.430Z,99.90
2019-04-23T22:24:12.372Z,99.90
2019-04-23T22:31:38.790Z,99.90
2019-04-23T22:34:09.216Z,99.90
2019-04-23T22:36:43.244Z,99.90
2019-04-23T22:39:03.067Z,99.90
2019-04-23T22:41:40.073Z,98.50
2019-04-23T22:46:51.087Z,99.90
2019-04-23T22:49:14.620Z,99.90
2019-04-23T22:51:41.508Z,99.90
2019-04-23T22:54:03.755Z,99.90
2019-04-23T22:56:35.121Z,99.90
2019-04-23T22:59:15.358Z,99.90
2019-04-23T23:01:43.173Z,99.90
2019-04-23T23:04:24.394Z,99.90
2019-04-23T23:11:58.201Z,99.90
2019-04-23T23:16:50.383Z,99.80
2019-04-23T23:19:29.875Z,99.90
2019-04-23T23:24:18.335Z,99.90
2019-04-23T23:26:54.157Z,99.90
2019-04-23T23:34:15.577Z,99.70
2019-04-23T23:36:54.938Z,98.10
2019-04-23T23:39:22.429Z,99.20
2019-04-23T23:41:50.138Z,99.20
2019-04-23T23:46:56.264Z,97.90
2019-04-23T23:49:18.573Z,98.80
2019-04-23T23:51:49.318Z,98.90
2019-04-23T23:54:21.540Z,98.90
2019-04-23T23:56:58.305Z,98.00
2019-04-23T23:59:26.956Z,99.30
